sensor_id;sensor_type;location;lat;lon;timestamp;P1;durP1;ratioP1;P2;durP2;ratioP2
54831;SDS011;40730;53.068;6.572;2023-04-15T00:01:26;14.50;;;4.97;;
54831;SDS011;40730;53.068;6.572;2023-04-15T00:03:51;11.63;;;4.63;;
54831;SDS011;40730;53.068;6.572;2023-04-15T00:06:18;14.15;;;4.10;;
54831;SDS011;40730;53.068;6.572;2023-04-15T00:08:45;18.80;;;4.90;;
54831;SDS011;40730;53.068;6.572;2023-04-15T00:11:11;13.60;;;5.25;;
54831;SDS011;40730;53.068;6.572;2023-04-15T00:13:38;9.10;;;4.78;;
54831;SDS011;40730;53.068;6.572;2023-04-15T00:16:04;14.07;;;4.57;;
54831;SDS011;40730;53.068;6.572;2023-04-15T00:18:31;12.48;;;4.95;;
54831;SDS011;40730;53.068;6.572;2023-04-15T00:20:57;9.32;;;4.35;;
54831;SDS011;40730;53.068;6.572;2023-04-15T00:23:23;12.10;;;5.05;;
54831;SDS011;40730;53.068;6.572;2023-04-15T00:25:49;11.20;;;5.22;;
54831;SDS011;40730;53.068;6.572;2023-04-15T00:28:15;12.60;;;5.18;;
54831;SDS011;40730;53.068;6.572;2023-04-15T00:30:41;12.63;;;5.43;;
54831;SDS011;40730;53.068;6.572;2023-04-15T00:33:07;13.20;;;6.07;;
54831;SDS011;40730;53.068;6.572;2023-04-15T00:35:33;14.15;;;6.05;;
54831;SDS011;40730;53.068;6.572;2023-04-15T00:37:58;15.10;;;5.75;;
54831;SDS011;40730;53.068;6.572;2023-04-15T00:40:24;12.73;;;5.68;;
54831;SDS011;40730;53.068;6.572;2023-04-15T00:42:50;14.00;;;6.05;;
54831;SDS011;40730;53.068;6.572;2023-04-15T00:45:16;12.75;;;5.75;;
54831;SDS011;40730;53.068;6.572;2023-04-15T00:47:43;13.02;;;5.88;;
54831;SDS011;40730;53.068;6.572;2023-04-15T00:50:09;14.93;;;6.13;;
54831;SDS011;40730;53.068;6.572;2023-04-15T00:52:36;12.68;;;6.55;;
54831;SDS011;40730;53.068;6.572;2023-04-15T00:55:03;11.60;;;6.25;;
54831;SDS011;40730;53.068;6.572;2023-04-15T00:57:29;11.35;;;6.13;;
54831;SDS011;40730;53.068;6.572;2023-04-15T00:59:55;11.60;;;6.32;;
54831;SDS011;40730;53.068;6.572;2023-04-15T01:02:22;11.25;;;6.57;;
54831;SDS011;40730;53.068;6.572;2023-04-15T01:04:48;15.73;;;5.80;;
54831;SDS011;40730;53.068;6.572;2023-04-15T01:07:14;16.00;;;7.35;;
54831;SDS011;40730;53.068;6.572;2023-04-15T01:09:40;14.18;;;6.68;;
54831;SDS011;40730;53.068;6.572;2023-04-15T01:12:06;10.82;;;6.50;;
54831;SDS011;40730;53.068;6.572;2023-04-15T01:14:34;17.23;;;7.38;;
54831;SDS011;40730;53.068;6.572;2023-04-15T01:17:00;12.90;;;7.10;;
54831;SDS011;40730;53.068;6.572;2023-04-15T01:19:26;13.27;;;7.30;;
54831;SDS011;40730;53.068;6.572;2023-04-15T01:21:52;14.68;;;7.05;;
54831;SDS011;40730;53.068;6.572;2023-04-15T01:24:18;14.43;;;7.57;;
54831;SDS011;40730;53.068;6.572;2023-04-15T01:26:44;15.80;;;7.28;;
54831;SDS011;40730;53.068;6.572;2023-04-15T01:29:10;14.13;;;7.03;;
54831;SDS011;40730;53.068;6.572;2023-04-15T01:31:36;13.07;;;7.25;;
54831;SDS011;40730;53.068;6.572;2023-04-15T01:34:01;14.93;;;6.78;;
54831;SDS011;40730;53.068;6.572;2023-04-15T01:36:27;15.05;;;7.85;;
54831;SDS011;40730;53.068;6.572;2023-04-15T01:38:54;10.88;;;7.10;;
54831;SDS011;40730;53.068;6.572;2023-04-15T01:41:24;15.00;;;7.47;;
54831;SDS011;40730;53.068;6.572;2023-04-15T01:43:51;16.27;;;7.45;;
54831;SDS011;40730;53.068;6.572;2023-04-15T01:46:17;18.58;;;8.52;;
54831;SDS011;40730;53.068;6.572;2023-04-15T01:48:42;15.63;;;8.82;;
54831;SDS011;40730;53.068;6.572;2023-04-15T01:51:08;13.48;;;6.93;;
54831;SDS011;40730;53.068;6.572;2023-04-15T01:53:34;14.05;;;7.72;;
54831;SDS011;40730;53.068;6.572;2023-04-15T01:55:59;17.27;;;8.30;;
54831;SDS011;40730;53.068;6.572;2023-04-15T01:58:25;13.20;;;7.28;;
54831;SDS011;40730;53.068;6.572;2023-04-15T02:00:51;13.63;;;7.47;;
54831;SDS011;40730;53.068;6.572;2023-04-15T02:03:17;12.82;;;6.88;;
54831;SDS011;40730;53.068;6.572;2023-04-15T02:05:43;13.20;;;7.30;;
54831;SDS011;40730;53.068;6.572;2023-04-15T02:08:09;13.98;;;7.72;;
54831;SDS011;40730;53.068;6.572;2023-04-15T02:10:34;16.83;;;7.38;;
54831;SDS011;40730;53.068;6.572;2023-04-15T02:13:00;14.55;;;8.35;;
54831;SDS011;40730;53.068;6.572;2023-04-15T02:15:26;14.18;;;8.70;;
54831;SDS011;40730;53.068;6.572;2023-04-15T02:17:51;12.73;;;7.35;;
54831;SDS011;40730;53.068;6.572;2023-04-15T02:20:19;17.67;;;8.07;;
54831;SDS011;40730;53.068;6.572;2023-04-15T02:22:45;11.85;;;7.68;;
54831;SDS011;40730;53.068;6.572;2023-04-15T02:25:12;13.85;;;7.95;;
54831;SDS011;40730;53.068;6.572;2023-04-15T02:27:38;13.20;;;8.63;;
54831;SDS011;40730;53.068;6.572;2023-04-15T02:30:04;14.65;;;8.80;;
54831;SDS011;40730;53.068;6.572;2023-04-15T02:32:31;13.68;;;8.32;;
54831;SDS011;40730;53.068;6.572;2023-04-15T02:35:00;16.42;;;8.15;;
54831;SDS011;40730;53.068;6.572;2023-04-15T02:37:28;15.82;;;8.70;;
54831;SDS011;40730;53.068;6.572;2023-04-15T02:39:55;17.00;;;7.88;;
54831;SDS011;40730;53.068;6.572;2023-04-15T02:42:21;11.77;;;8.00;;
54831;SDS011;40730;53.068;6.572;2023-04-15T02:44:46;15.52;;;8.82;;
54831;SDS011;40730;53.068;6.572;2023-04-15T02:47:12;15.63;;;9.25;;
54831;SDS011;40730;53.068;6.572;2023-04-15T02:49:38;17.73;;;9.90;;
54831;SDS011;40730;53.068;6.572;2023-04-15T02:52:04;11.77;;;8.93;;
54831;SDS011;40730;53.068;6.572;2023-04-15T02:54:31;12.90;;;8.52;;
54831;SDS011;40730;53.068;6.572;2023-04-15T02:56:58;15.73;;;9.52;;
54831;SDS011;40730;53.068;6.572;2023-04-15T02:59:24;17.35;;;10.00;;
54831;SDS011;40730;53.068;6.572;2023-04-15T03:01:49;18.52;;;10.05;;
54831;SDS011;40730;53.068;6.572;2023-04-15T03:04:15;17.13;;;9.95;;
54831;SDS011;40730;53.068;6.572;2023-04-15T03:06:41;15.45;;;10.50;;
54831;SDS011;40730;53.068;6.572;2023-04-15T03:09:06;17.73;;;9.75;;
54831;SDS011;40730;53.068;6.572;2023-04-15T03:11:32;17.80;;;10.07;;
54831;SDS011;40730;53.068;6.572;2023-04-15T03:13:58;17.80;;;11.35;;
54831;SDS011;40730;53.068;6.572;2023-04-15T03:16:23;24.13;;;12.15;;
54831;SDS011;40730;53.068;6.572;2023-04-15T03:18:49;20.40;;;11.40;;
54831;SDS011;40730;53.068;6.572;2023-04-15T03:21:15;19.73;;;11.63;;
54831;SDS011;40730;53.068;6.572;2023-04-15T03:23:41;18.73;;;11.18;;
54831;SDS011;40730;53.068;6.572;2023-04-15T03:26:06;22.70;;;12.13;;
54831;SDS011;40730;53.068;6.572;2023-04-15T03:28:32;18.98;;;10.68;;
54831;SDS011;40730;53.068;6.572;2023-04-15T03:30:58;19.13;;;10.68;;
54831;SDS011;40730;53.068;6.572;2023-04-15T03:33:23;20.95;;;12.30;;
54831;SDS011;40730;53.068;6.572;2023-04-15T03:35:49;22.27;;;12.95;;
54831;SDS011;40730;53.068;6.572;2023-04-15T03:38:16;23.30;;;13.15;;
54831;SDS011;40730;53.068;6.572;2023-04-15T03:40:42;22.73;;;13.23;;
54831;SDS011;40730;53.068;6.572;2023-04-15T03:43:07;24.92;;;13.45;;
54831;SDS011;40730;53.068;6.572;2023-04-15T03:45:33;26.70;;;14.25;;
54831;SDS011;40730;53.068;6.572;2023-04-15T03:47:58;27.33;;;14.48;;
54831;SDS011;40730;53.068;6.572;2023-04-15T03:50:24;23.35;;;14.10;;
54831;SDS011;40730;53.068;6.572;2023-04-15T03:52:50;23.98;;;13.30;;
54831;SDS011;40730;53.068;6.572;2023-04-15T03:55:15;24.27;;;13.25;;
54831;SDS011;40730;53.068;6.572;2023-04-15T03:57:41;25.73;;;14.75;;
54831;SDS011;40730;53.068;6.572;2023-04-15T04:00:07;25.15;;;13.88;;
54831;SDS011;40730;53.068;6.572;2023-04-15T04:02:34;22.02;;;12.45;;
54831;SDS011;40730;53.068;6.572;2023-04-15T04:04:59;27.60;;;14.88;;
54831;SDS011;40730;53.068;6.572;2023-04-15T04:07:25;20.98;;;13.27;;
54831;SDS011;40730;53.068;6.572;2023-04-15T04:09:50;27.58;;;15.55;;
54831;SDS011;40730;53.068;6.572;2023-04-15T04:12:16;29.00;;;16.13;;
54831;SDS011;40730;53.068;6.572;2023-04-15T04:14:42;32.80;;;15.15;;
54831;SDS011;40730;53.068;6.572;2023-04-15T04:17:07;35.50;;;15.63;;
54831;SDS011;40730;53.068;6.572;2023-04-15T04:19:33;33.55;;;16.63;;
54831;SDS011;40730;53.068;6.572;2023-04-15T04:21:58;41.20;;;18.77;;
54831;SDS011;40730;53.068;6.572;2023-04-15T04:24:24;41.28;;;18.73;;
54831;SDS011;40730;53.068;6.572;2023-04-15T04:26:50;39.55;;;18.55;;
54831;SDS011;40730;53.068;6.572;2023-04-15T04:29:16;41.97;;;21.20;;
54831;SDS011;40730;53.068;6.572;2023-04-15T04:31:41;45.15;;;20.85;;
54831;SDS011;40730;53.068;6.572;2023-04-15T04:34:07;44.28;;;21.00;;
54831;SDS011;40730;53.068;6.572;2023-04-15T04:36:32;44.88;;;19.52;;
54831;SDS011;40730;53.068;6.572;2023-04-15T04:38:58;42.83;;;20.42;;
54831;SDS011;40730;53.068;6.572;2023-04-15T04:41:25;48.08;;;20.67;;
54831;SDS011;40730;53.068;6.572;2023-04-15T04:43:51;50.40;;;21.85;;
54831;SDS011;40730;53.068;6.572;2023-04-15T04:46:16;51.42;;;21.50;;
54831;SDS011;40730;53.068;6.572;2023-04-15T04:48:42;43.40;;;20.77;;
54831;SDS011;40730;53.068;6.572;2023-04-15T04:51:07;55.63;;;21.85;;
54831;SDS011;40730;53.068;6.572;2023-04-15T04:53:33;60.20;;;22.02;;
54831;SDS011;40730;53.068;6.572;2023-04-15T04:55:59;64.22;;;21.15;;
54831;SDS011;40730;53.068;6.572;2023-04-15T04:58:25;75.07;;;23.42;;
54831;SDS011;40730;53.068;6.572;2023-04-15T05:00:51;105.38;;;25.25;;
54831;SDS011;40730;53.068;6.572;2023-04-15T05:03:17;67.28;;;23.40;;
54831;SDS011;40730;53.068;6.572;2023-04-15T05:05:42;99.47;;;25.33;;
54831;SDS011;40730;53.068;6.572;2023-04-15T05:08:08;73.72;;;24.80;;
54831;SDS011;40730;53.068;6.572;2023-04-15T05:10:33;83.50;;;25.13;;
54831;SDS011;40730;53.068;6.572;2023-04-15T05:12:59;81.28;;;24.90;;
54831;SDS011;40730;53.068;6.572;2023-04-15T05:15:25;89.95;;;25.52;;
54831;SDS011;40730;53.068;6.572;2023-04-15T05:17:51;71.32;;;23.77;;
54831;SDS011;40730;53.068;6.572;2023-04-15T05:20:16;64.20;;;23.23;;
54831;SDS011;40730;53.068;6.572;2023-04-15T05:22:42;74.22;;;25.70;;
54831;SDS011;40730;53.068;6.572;2023-04-15T05:25:07;92.63;;;27.35;;
54831;SDS011;40730;53.068;6.572;2023-04-15T05:27:33;67.90;;;24.90;;
54831;SDS011;40730;53.068;6.572;2023-04-15T05:29:59;58.75;;;22.50;;
54831;SDS011;40730;53.068;6.572;2023-04-15T05:32:25;67.13;;;25.98;;
54831;SDS011;40730;53.068;6.572;2023-04-15T05:34:50;80.30;;;24.67;;
54831;SDS011;40730;53.068;6.572;2023-04-15T05:37:16;57.63;;;22.83;;
54831;SDS011;40730;53.068;6.572;2023-04-15T05:39:44;69.47;;;23.58;;
54831;SDS011;40730;53.068;6.572;2023-04-15T05:42:10;67.53;;;26.85;;
54831;SDS011;40730;53.068;6.572;2023-04-15T05:44:36;74.22;;;29.20;;
54831;SDS011;40730;53.068;6.572;2023-04-15T05:47:01;71.95;;;26.98;;
54831;SDS011;40730;53.068;6.572;2023-04-15T05:49:27;68.55;;;25.88;;
54831;SDS011;40730;53.068;6.572;2023-04-15T05:51:53;57.65;;;26.10;;
54831;SDS011;40730;53.068;6.572;2023-04-15T05:54:19;51.58;;;25.08;;
54831;SDS011;40730;53.068;6.572;2023-04-15T05:56:47;49.25;;;24.10;;
54831;SDS011;40730;53.068;6.572;2023-04-15T05:59:12;52.85;;;25.33;;
54831;SDS011;40730;53.068;6.572;2023-04-15T06:01:38;44.10;;;23.58;;
54831;SDS011;40730;53.068;6.572;2023-04-15T06:04:04;46.67;;;23.55;;
54831;SDS011;40730;53.068;6.572;2023-04-15T06:06:30;43.28;;;22.13;;
54831;SDS011;40730;53.068;6.572;2023-04-15T06:08:56;38.28;;;20.40;;
54831;SDS011;40730;53.068;6.572;2023-04-15T06:11:22;40.53;;;19.90;;
54831;SDS011;40730;53.068;6.572;2023-04-15T06:13:48;39.83;;;20.10;;
54831;SDS011;40730;53.068;6.572;2023-04-15T06:16:14;33.90;;;18.80;;
54831;SDS011;40730;53.068;6.572;2023-04-15T06:18:39;31.42;;;18.90;;
54831;SDS011;40730;53.068;6.572;2023-04-15T06:21:05;35.58;;;19.42;;
54831;SDS011;40730;53.068;6.572;2023-04-15T06:23:33;31.60;;;17.30;;
54831;SDS011;40730;53.068;6.572;2023-04-15T06:25:59;29.02;;;16.80;;
54831;SDS011;40730;53.068;6.572;2023-04-15T06:28:25;26.33;;;15.82;;
54831;SDS011;40730;53.068;6.572;2023-04-15T06:30:51;26.98;;;16.80;;
54831;SDS011;40730;53.068;6.572;2023-04-15T06:33:17;30.15;;;16.17;;
54831;SDS011;40730;53.068;6.572;2023-04-15T06:35:43;26.80;;;15.68;;
54831;SDS011;40730;53.068;6.572;2023-04-15T06:38:09;24.42;;;15.60;;
54831;SDS011;40730;53.068;6.572;2023-04-15T06:40:34;24.85;;;14.27;;
54831;SDS011;40730;53.068;6.572;2023-04-15T06:43:00;21.58;;;13.60;;
54831;SDS011;40730;53.068;6.572;2023-04-15T06:45:26;18.15;;;12.32;;
54831;SDS011;40730;53.068;6.572;2023-04-15T06:47:51;21.73;;;12.80;;
54831;SDS011;40730;53.068;6.572;2023-04-15T06:50:17;20.60;;;12.10;;
54831;SDS011;40730;53.068;6.572;2023-04-15T06:52:43;17.35;;;10.73;;
54831;SDS011;40730;53.068;6.572;2023-04-15T06:55:08;16.55;;;10.15;;
54831;SDS011;40730;53.068;6.572;2023-04-15T06:57:34;16.05;;;10.40;;
54831;SDS011;40730;53.068;6.572;2023-04-15T07:00:00;16.15;;;10.40;;
54831;SDS011;40730;53.068;6.572;2023-04-15T07:02:26;16.40;;;10.15;;
54831;SDS011;40730;53.068;6.572;2023-04-15T07:04:51;13.48;;;9.75;;
54831;SDS011;40730;53.068;6.572;2023-04-15T07:07:17;13.95;;;8.98;;
54831;SDS011;40730;53.068;6.572;2023-04-15T07:09:43;13.95;;;9.27;;
54831;SDS011;40730;53.068;6.572;2023-04-15T07:12:08;13.13;;;9.02;;
54831;SDS011;40730;53.068;6.572;2023-04-15T07:14:34;12.82;;;9.23;;
54831;SDS011;40730;53.068;6.572;2023-04-15T07:17:00;13.68;;;8.70;;
54831;SDS011;40730;53.068;6.572;2023-04-15T07:19:26;16.58;;;8.88;;
54831;SDS011;40730;53.068;6.572;2023-04-15T07:21:52;13.52;;;8.65;;
54831;SDS011;40730;53.068;6.572;2023-04-15T07:24:17;12.95;;;7.55;;
54831;SDS011;40730;53.068;6.572;2023-04-15T07:26:44;14.18;;;7.90;;
54831;SDS011;40730;53.068;6.572;2023-04-15T07:29:10;11.95;;;6.78;;
54831;SDS011;40730;53.068;6.572;2023-04-15T07:31:36;13.70;;;8.07;;
54831;SDS011;40730;53.068;6.572;2023-04-15T07:34:02;13.27;;;8.27;;
54831;SDS011;40730;53.068;6.572;2023-04-15T07:36:28;12.50;;;7.85;;
54831;SDS011;40730;53.068;6.572;2023-04-15T07:38:54;13.43;;;8.38;;
54831;SDS011;40730;53.068;6.572;2023-04-15T07:41:20;10.02;;;6.95;;
54831;SDS011;40730;53.068;6.572;2023-04-15T07:43:46;13.05;;;7.45;;
54831;SDS011;40730;53.068;6.572;2023-04-15T07:46:12;11.32;;;6.32;;
54831;SDS011;40730;53.068;6.572;2023-04-15T07:48:38;7.95;;;5.05;;
54831;SDS011;40730;53.068;6.572;2023-04-15T07:51:04;9.57;;;5.95;;
54831;SDS011;40730;53.068;6.572;2023-04-15T07:53:30;11.10;;;4.95;;
54831;SDS011;40730;53.068;6.572;2023-04-15T07:55:57;8.05;;;4.28;;
54831;SDS011;40730;53.068;6.572;2023-04-15T07:58:22;8.85;;;4.85;;
54831;SDS011;40730;53.068;6.572;2023-04-15T08:00:48;4.68;;;2.45;;
54831;SDS011;40730;53.068;6.572;2023-04-15T08:03:14;6.00;;;3.80;;
54831;SDS011;40730;53.068;6.572;2023-04-15T08:05:40;4.35;;;2.80;;
54831;SDS011;40730;53.068;6.572;2023-04-15T08:08:05;7.07;;;3.90;;
54831;SDS011;40730;53.068;6.572;2023-04-15T08:10:32;7.68;;;3.53;;
54831;SDS011;40730;53.068;6.572;2023-04-15T08:12:57;7.45;;;3.67;;
54831;SDS011;40730;53.068;6.572;2023-04-15T08:15:23;7.07;;;3.63;;
54831;SDS011;40730;53.068;6.572;2023-04-15T08:17:49;5.20;;;3.47;;
54831;SDS011;40730;53.068;6.572;2023-04-15T08:20:15;7.18;;;4.63;;
54831;SDS011;40730;53.068;6.572;2023-04-15T08:22:40;9.88;;;4.20;;
54831;SDS011;40730;53.068;6.572;2023-04-15T08:25:06;9.27;;;4.55;;
54831;SDS011;40730;53.068;6.572;2023-04-15T08:27:33;9.13;;;4.88;;
54831;SDS011;40730;53.068;6.572;2023-04-15T08:29:59;8.93;;;5.43;;
54831;SDS011;40730;53.068;6.572;2023-04-15T08:32:25;10.38;;;5.25;;
54831;SDS011;40730;53.068;6.572;2023-04-15T08:34:51;6.78;;;4.50;;
54831;SDS011;40730;53.068;6.572;2023-04-15T08:37:17;7.63;;;4.28;;
54831;SDS011;40730;53.068;6.572;2023-04-15T08:39:43;9.23;;;4.43;;
54831;SDS011;40730;53.068;6.572;2023-04-15T08:42:16;8.32;;;4.07;;
54831;SDS011;40730;53.068;6.572;2023-04-15T08:44:43;7.20;;;4.60;;
54831;SDS011;40730;53.068;6.572;2023-04-15T08:47:12;8.63;;;3.90;;
54831;SDS011;40730;53.068;6.572;2023-04-15T08:49:39;6.88;;;4.03;;
54831;SDS011;40730;53.068;6.572;2023-04-15T08:52:06;6.97;;;3.90;;
54831;SDS011;40730;53.068;6.572;2023-04-15T08:54:33;6.05;;;2.95;;
54831;SDS011;40730;53.068;6.572;2023-04-15T08:56:59;7.78;;;3.60;;
54831;SDS011;40730;53.068;6.572;2023-04-15T08:59:26;3.95;;;3.10;;
54831;SDS011;40730;53.068;6.572;2023-04-15T09:01:54;6.25;;;3.33;;
54831;SDS011;40730;53.068;6.572;2023-04-15T09:04:21;5.65;;;3.17;;
54831;SDS011;40730;53.068;6.572;2023-04-15T09:06:46;7.72;;;3.20;;
54831;SDS011;40730;53.068;6.572;2023-04-15T09:09:12;6.80;;;2.35;;
54831;SDS011;40730;53.068;6.572;2023-04-15T09:11:40;7.00;;;1.80;;
54831;SDS011;40730;53.068;6.572;2023-04-15T09:14:06;5.95;;;1.65;;
54831;SDS011;40730;53.068;6.572;2023-04-15T09:16:54;3.45;;;0.90;;
54831;SDS011;40730;53.068;6.572;2023-04-15T09:19:25;6.30;;;1.10;;
54831;SDS011;40730;53.068;6.572;2023-04-15T09:21:52;4.15;;;1.40;;
54831;SDS011;40730;53.068;6.572;2023-04-15T09:24:20;3.63;;;1.00;;
54831;SDS011;40730;53.068;6.572;2023-04-15T09:26:46;4.93;;;1.00;;
54831;SDS011;40730;53.068;6.572;2023-04-15T09:29:16;4.43;;;1.15;;
54831;SDS011;40730;53.068;6.572;2023-04-15T09:31:42;3.70;;;0.77;;
54831;SDS011;40730;53.068;6.572;2023-04-15T09:34:08;2.28;;;0.80;;
54831;SDS011;40730;53.068;6.572;2023-04-15T09:36:39;6.43;;;1.10;;
54831;SDS011;40730;53.068;6.572;2023-04-15T09:39:17;1.77;;;0.70;;
54831;SDS011;40730;53.068;6.572;2023-04-15T09:41:42;2.00;;;0.57;;
54831;SDS011;40730;53.068;6.572;2023-04-15T09:44:24;2.13;;;0.60;;
54831;SDS011;40730;53.068;6.572;2023-04-15T09:46:50;1.83;;;0.45;;
54831;SDS011;40730;53.068;6.572;2023-04-15T09:49:16;1.42;;;0.47;;
54831;SDS011;40730;53.068;6.572;2023-04-15T09:51:42;2.33;;;0.60;;
54831;SDS011;40730;53.068;6.572;2023-04-15T09:54:08;2.45;;;0.50;;
54831;SDS011;40730;53.068;6.572;2023-04-15T09:56:34;2.35;;;0.57;;
54831;SDS011;40730;53.068;6.572;2023-04-15T09:59:02;3.47;;;0.55;;
54831;SDS011;40730;53.068;6.572;2023-04-15T10:01:29;0.90;;;0.30;;
54831;SDS011;40730;53.068;6.572;2023-04-15T10:03:55;1.30;;;0.40;;
54831;SDS011;40730;53.068;6.572;2023-04-15T10:06:25;1.70;;;0.50;;
54831;SDS011;40730;53.068;6.572;2023-04-15T10:08:51;2.03;;;0.40;;
54831;SDS011;40730;53.068;6.572;2023-04-15T10:11:17;2.83;;;0.40;;
54831;SDS011;40730;53.068;6.572;2023-04-15T10:13:45;3.70;;;0.65;;
54831;SDS011;40730;53.068;6.572;2023-04-15T10:16:13;3.92;;;0.60;;
54831;SDS011;40730;53.068;6.572;2023-04-15T10:18:44;1.90;;;0.40;;
54831;SDS011;40730;53.068;6.572;2023-04-15T10:21:12;1.15;;;0.40;;
54831;SDS011;40730;53.068;6.572;2023-04-15T10:23:40;1.83;;;0.55;;
54831;SDS011;40730;53.068;6.572;2023-04-15T10:26:06;1.75;;;0.50;;
54831;SDS011;40730;53.068;6.572;2023-04-15T10:28:32;4.32;;;0.60;;
54831;SDS011;40730;53.068;6.572;2023-04-15T10:30:58;3.42;;;0.50;;
54831;SDS011;40730;53.068;6.572;2023-04-15T10:33:25;1.40;;;0.30;;
54831;SDS011;40730;53.068;6.572;2023-04-15T10:35:52;2.17;;;0.57;;
54831;SDS011;40730;53.068;6.572;2023-04-15T10:38:38;3.30;;;0.40;;
54831;SDS011;40730;53.068;6.572;2023-04-15T10:41:12;1.20;;;0.30;;
54831;SDS011;40730;53.068;6.572;2023-04-15T10:43:39;1.42;;;0.50;;
54831;SDS011;40730;53.068;6.572;2023-04-15T10:46:10;1.48;;;0.35;;
54831;SDS011;40730;53.068;6.572;2023-04-15T10:48:35;2.20;;;0.60;;
54831;SDS011;40730;53.068;6.572;2023-04-15T10:51:01;6.18;;;0.60;;
54831;SDS011;40730;53.068;6.572;2023-04-15T10:53:29;3.03;;;0.40;;
54831;SDS011;40730;53.068;6.572;2023-04-15T10:55:56;4.38;;;0.30;;
54831;SDS011;40730;53.068;6.572;2023-04-15T10:58:22;3.45;;;0.40;;
54831;SDS011;40730;53.068;6.572;2023-04-15T11:00:50;3.45;;;0.50;;
54831;SDS011;40730;53.068;6.572;2023-04-15T11:03:20;3.85;;;0.60;;
54831;SDS011;40730;53.068;6.572;2023-04-15T11:06:01;3.53;;;0.55;;
54831;SDS011;40730;53.068;6.572;2023-04-15T11:11:20;8.80;;;0.45;;
54831;SDS011;40730;53.068;6.572;2023-04-15T11:13:50;5.60;;;0.60;;
54831;SDS011;40730;53.068;6.572;2023-04-15T11:16:18;4.13;;;0.60;;
54831;SDS011;40730;53.068;6.572;2023-04-15T11:18:53;2.28;;;0.57;;
54831;SDS011;40730;53.068;6.572;2023-04-15T11:21:20;4.57;;;0.57;;
54831;SDS011;40730;53.068;6.572;2023-04-15T11:23:50;4.03;;;0.68;;
54831;SDS011;40730;53.068;6.572;2023-04-15T11:26:15;7.30;;;0.95;;
54831;SDS011;40730;53.068;6.572;2023-04-15T11:28:42;7.25;;;2.00;;
54831;SDS011;40730;53.068;6.572;2023-04-15T11:31:12;4.13;;;1.20;;
54831;SDS011;40730;53.068;6.572;2023-04-15T11:33:55;4.47;;;0.93;;
54831;SDS011;40730;53.068;6.572;2023-04-15T11:36:26;5.30;;;0.73;;
54831;SDS011;40730;53.068;6.572;2023-04-15T11:38:53;5.97;;;0.70;;
54831;SDS011;40730;53.068;6.572;2023-04-15T11:41:19;4.55;;;0.85;;
54831;SDS011;40730;53.068;6.572;2023-04-15T11:43:46;8.57;;;1.05;;
54831;SDS011;40730;53.068;6.572;2023-04-15T11:46:11;6.88;;;0.65;;
54831;SDS011;40730;53.068;6.572;2023-04-15T11:48:40;7.90;;;0.55;;
54831;SDS011;40730;53.068;6.572;2023-04-15T11:51:07;6.40;;;0.50;;
54831;SDS011;40730;53.068;6.572;2023-04-15T11:56:03;5.75;;;1.15;;
54831;SDS011;40730;53.068;6.572;2023-04-15T11:58:29;5.18;;;0.80;;
54831;SDS011;40730;53.068;6.572;2023-04-15T12:00:59;3.88;;;0.50;;
54831;SDS011;40730;53.068;6.572;2023-04-15T12:03:29;5.25;;;0.60;;
54831;SDS011;40730;53.068;6.572;2023-04-15T12:11:20;4.85;;;0.50;;
54831;SDS011;40730;53.068;6.572;2023-04-15T12:13:53;6.80;;;0.47;;
54831;SDS011;40730;53.068;6.572;2023-04-15T12:16:21;6.50;;;0.70;;
54831;SDS011;40730;53.068;6.572;2023-04-15T12:18:51;11.48;;;1.27;;
54831;SDS011;40730;53.068;6.572;2023-04-15T12:21:20;4.13;;;0.47;;
54831;SDS011;40730;53.068;6.572;2023-04-15T12:23:47;5.93;;;0.60;;
54831;SDS011;40730;53.068;6.572;2023-04-15T12:26:14;7.13;;;0.40;;
54831;SDS011;40730;53.068;6.572;2023-04-15T12:28:41;4.43;;;0.50;;
54831;SDS011;40730;53.068;6.572;2023-04-15T12:31:08;5.18;;;0.60;;
54831;SDS011;40730;53.068;6.572;2023-04-15T12:33:35;5.65;;;0.40;;
54831;SDS011;40730;53.068;6.572;2023-04-15T12:36:01;5.25;;;0.47;;
54831;SDS011;40730;53.068;6.572;2023-04-15T12:38:27;5.05;;;0.60;;
54831;SDS011;40730;53.068;6.572;2023-04-15T12:40:53;6.22;;;0.63;;
54831;SDS011;40730;53.068;6.572;2023-04-15T12:43:19;7.35;;;0.60;;
54831;SDS011;40730;53.068;6.572;2023-04-15T12:45:44;4.80;;;0.50;;
54831;SDS011;40730;53.068;6.572;2023-04-15T12:48:10;3.00;;;0.43;;
54831;SDS011;40730;53.068;6.572;2023-04-15T12:50:36;5.72;;;0.65;;
54831;SDS011;40730;53.068;6.572;2023-04-15T12:53:02;7.15;;;0.52;;
54831;SDS011;40730;53.068;6.572;2023-04-15T12:55:27;5.30;;;0.70;;
54831;SDS011;40730;53.068;6.572;2023-04-15T12:57:54;7.82;;;0.68;;
54831;SDS011;40730;53.068;6.572;2023-04-15T13:00:23;5.35;;;0.50;;
54831;SDS011;40730;53.068;6.572;2023-04-15T13:02:48;7.38;;;0.85;;
54831;SDS011;40730;53.068;6.572;2023-04-15T13:05:14;2.47;;;0.40;;
54831;SDS011;40730;53.068;6.572;2023-04-15T13:07:40;4.03;;;0.65;;
54831;SDS011;40730;53.068;6.572;2023-04-15T13:10:06;4.32;;;0.40;;
54831;SDS011;40730;53.068;6.572;2023-04-15T13:12:32;3.53;;;0.40;;
54831;SDS011;40730;53.068;6.572;2023-04-15T13:15:01;7.22;;;0.77;;
54831;SDS011;40730;53.068;6.572;2023-04-15T13:17:28;8.73;;;0.47;;
54831;SDS011;40730;53.068;6.572;2023-04-15T13:19:53;4.43;;;0.30;;
54831;SDS011;40730;53.068;6.572;2023-04-15T13:22:19;7.68;;;1.85;;
54831;SDS011;40730;53.068;6.572;2023-04-15T13:24:45;5.13;;;0.38;;
54831;SDS011;40730;53.068;6.572;2023-04-15T13:27:11;4.90;;;0.60;;
54831;SDS011;40730;53.068;6.572;2023-04-15T13:29:36;4.90;;;0.40;;
54831;SDS011;40730;53.068;6.572;2023-04-15T13:32:03;3.97;;;0.50;;
54831;SDS011;40730;53.068;6.572;2023-04-15T13:34:28;5.10;;;0.40;;
54831;SDS011;40730;53.068;6.572;2023-04-15T13:36:54;4.05;;;0.38;;
54831;SDS011;40730;53.068;6.572;2023-04-15T13:39:20;5.95;;;0.40;;
54831;SDS011;40730;53.068;6.572;2023-04-15T13:41:45;3.13;;;0.40;;
54831;SDS011;40730;53.068;6.572;2023-04-15T13:44:12;6.03;;;0.70;;
54831;SDS011;40730;53.068;6.572;2023-04-15T13:46:38;5.45;;;0.40;;
54831;SDS011;40730;53.068;6.572;2023-04-15T13:49:06;7.18;;;0.50;;
54831;SDS011;40730;53.068;6.572;2023-04-15T13:51:31;9.82;;;0.63;;
54831;SDS011;40730;53.068;6.572;2023-04-15T13:53:57;6.97;;;0.45;;
54831;SDS011;40730;53.068;6.572;2023-04-15T13:56:23;7.20;;;0.82;;
54831;SDS011;40730;53.068;6.572;2023-04-15T13:58:48;6.65;;;0.40;;
54831;SDS011;40730;53.068;6.572;2023-04-15T14:01:16;5.78;;;0.30;;
54831;SDS011;40730;53.068;6.572;2023-04-15T14:03:42;7.15;;;0.40;;
54831;SDS011;40730;53.068;6.572;2023-04-15T14:06:08;3.80;;;0.57;;
54831;SDS011;40730;53.068;6.572;2023-04-15T14:08:33;4.97;;;0.40;;
54831;SDS011;40730;53.068;6.572;2023-04-15T14:10:59;4.32;;;0.30;;
54831;SDS011;40730;53.068;6.572;2023-04-15T14:13:25;7.63;;;0.50;;
54831;SDS011;40730;53.068;6.572;2023-04-15T14:15:50;5.82;;;0.50;;
54831;SDS011;40730;53.068;6.572;2023-04-15T14:18:16;3.47;;;0.40;;
54831;SDS011;40730;53.068;6.572;2023-04-15T14:20:42;5.20;;;0.55;;
54831;SDS011;40730;53.068;6.572;2023-04-15T14:23:07;3.13;;;0.40;;
54831;SDS011;40730;53.068;6.572;2023-04-15T14:25:33;5.88;;;0.30;;
54831;SDS011;40730;53.068;6.572;2023-04-15T14:27:59;4.35;;;0.45;;
54831;SDS011;40730;53.068;6.572;2023-04-15T14:30:24;5.53;;;0.63;;
54831;SDS011;40730;53.068;6.572;2023-04-15T14:32:50;7.63;;;0.63;;
54831;SDS011;40730;53.068;6.572;2023-04-15T14:35:15;5.07;;;0.50;;
54831;SDS011;40730;53.068;6.572;2023-04-15T14:37:41;6.68;;;0.50;;
54831;SDS011;40730;53.068;6.572;2023-04-15T14:40:07;8.38;;;0.77;;
54831;SDS011;40730;53.068;6.572;2023-04-15T14:42:33;7.70;;;1.88;;